Terminal Aerodrome Forecast
Issued by NWS San Angelo, TX

Home | Current Version | Previous Version | Text Only | Print | Product List | Glossary On
Versions: 1 2 3 4 5 6 7 8 9 10 11 12 13 14 15 16 17 18
243
FTUS44 KSJT 302332
TAFSJT
TAF
KSJT 302332Z 0100/0124 03006KT P6SM SKC
     FM010100 09009KT P6SM SCT250
     FM011100 05011KT P6SM BKN015
     FM011900 05010KT P6SM BKN035=

USA.gov is the U.S. government's official web portal to all federal, state and local government web resources and services.